Okabena, Minnesota
Current Conditions -  °F | °C
As of 2:15 AM on Thursday 18 Dec 2014 (Local Time) from KOTG Reporting Station
Overcast Overcast  
Wind Chill: -13°   Ceiling: 7000
Heat Index: -13°   Visibility: 10mi
Dew Point: -13°   Wind: 0mph
Humidity: 100%   Direction: NA
Pressure: 30.26"   Gusts: NA
Location:  43.74°N, 95.32°W
Report Text: KOTG 180815Z AUTO 00000KT 10SM OVC070 M13/M13 A3026 RMK AO1
Loading
Personal Weather Stations






























Interactive Weather Map New forecast layout! Learn more

10-Day Weather Forecast

Advertisements
Track Severe Weather on mobile